This is the latest recevied weather packets stored in our database for station/object 9A7DI-13. If no packets are shown the sender has not sent any weather packets the latest 10 day(s).
| Time | Temp. | Humidity | Pressure | Rain* | Wind** | Luminosity | Snow |
|---|---|---|---|---|---|---|---|
| 1777770433 | 7.22° C | 75% | 1028.4 hPa | - | - | - | - |
| 1777769833 | 8.33° C | 72% | 1028.4 hPa | - | - | - | - |
| 1777769233 | 8.33° C | 74% | 1028.4 hPa | - | - | - | - |
| 1777768633 | 8.33° C | 72% | 1028.5 hPa | - | - | - | - |
| 1777768033 | 8.33° C | 72% | 1028.6 hPa | - | - | - | - |
| 1777767433 | 8.89° C | 70% | 1028.6 hPa | - | - | - | - |
| 1777766833 | 8.89° C | 71% | 1028.5 hPa | - | - | - | - |
| 1777766233 | 8.33° C | 70% | 1028.6 hPa | - | - | - | - |
| 1777765633 | 8.89° C | 69% | 1028.6 hPa | - | - | - | - |
| 1777765033 | 9.44° C | 67% | 1028.6 hPa | - | - | - | - |
| 1777764434 | 9.44° C | 68% | 1028.6 hPa | - | - | - | - |
| 1777763834 | 9.44° C | 68% | 1028.7 hPa | - | - | - | - |
| 1777763234 | 10° C | 64% | 1028.7 hPa | - | - | - | - |
| 1777762634 | 10° C | 64% | 1028.7 hPa | - | - | - | - |
| 1777762034 | 10.56° C | 64% | 1028.8 hPa | - | - | - | - |
| 1777761434 | 10.56° C | 63% | 1028.8 hPa | - | - | - | - |
| 1777760834 | 10.56° C | 63% | 1028.8 hPa | - | - | - | - |
| 1777759634 | 10.56° C | 64% | 1028.8 hPa | - | - | - | - |
| 1777759034 | 11.11° C | 63% | 1028.7 hPa | - | - | - | - |
| 1777758434 | 11.11° C | 64% | 1028.7 hPa | - | - | - | - |
| 1777757834 | 11.11° C | 63% | 1028.7 hPa | - | - | - | - |
| 1777757234 | 11.11° C | 65% | 1028.6 hPa | - | - | - | - |
| 1777756634 | 11.67° C | 61% | 1028.6 hPa | - | - | - | - |
| 1777756034 | 12.22° C | 57% | 1028.4 hPa | - | - | - | - |
| 1777755434 | 12.78° C | 56% | 1028.4 hPa | - | - | - | - |
* Rain since midnight (hover to see other rain measurements)
** Current wind speed in m/s (hover to see current wind gust speed)